createdAt,value
2023-01-20T00:00:50.149Z,65.67
2023-01-20T00:03:19.783Z,65.40
2023-01-20T00:05:58.128Z,65.24
2023-01-20T00:08:27.491Z,65.06
2023-01-20T00:10:56.883Z,64.88
2023-01-20T00:13:26.342Z,64.67
2023-01-20T00:15:57.325Z,65.41
2023-01-20T00:18:27.196Z,65.13
2023-01-20T00:20:59.426Z,65.41
2023-01-20T00:23:28.783Z,65.35
2023-01-20T00:25:58.220Z,65.40
2023-01-20T00:28:27.678Z,66.02
2023-01-20T00:30:57.220Z,65.25
2023-01-20T00:33:26.636Z,65.59
2023-01-20T00:35:56.001Z,65.91
2023-01-20T00:38:28.113Z,65.75
2023-01-20T00:40:57.685Z,65.83
2023-01-20T00:43:27.053Z,66.28
2023-01-20T00:45:56.500Z,66.26
2023-01-20T00:48:25.933Z,66.44
2023-01-20T00:50:55.311Z,66.69
2023-01-20T00:53:24.658Z,66.04
2023-01-20T00:55:56.709Z,66.39
2023-01-20T00:58:26.185Z,66.54
2023-01-20T01:00:56.359Z,66.78
2023-01-20T01:03:28.112Z,67.08
2023-01-20T01:05:57.693Z,67.18
2023-01-20T01:08:27.124Z,67.35
2023-01-20T01:11:00.806Z,66.71
2023-01-20T01:13:30.213Z,66.80
2023-01-20T01:15:59.732Z,67.40
2023-01-20T01:18:29.169Z,66.75
2023-01-20T01:20:58.624Z,66.77
2023-01-20T01:23:28.132Z,66.63
2023-01-20T01:26:00.221Z,66.66
2023-01-20T01:28:29.611Z,67.36
2023-01-20T01:31:02.618Z,67.32
2023-01-20T01:33:32.011Z,67.05
2023-01-20T01:36:01.532Z,67.00
2023-01-20T01:38:30.864Z,67.06
2023-01-20T01:41:02.968Z,67.57
2023-01-20T01:43:32.700Z,67.56
2023-01-20T01:46:02.260Z,67.01
2023-01-20T01:48:32.347Z,66.89
2023-01-20T01:51:03.780Z,66.71
2023-01-20T01:53:33.171Z,66.68
2023-01-20T01:56:05.150Z,67.39
2023-01-20T01:58:35.219Z,68.40
2023-01-20T02:01:04.695Z,69.96
2023-01-20T02:03:34.786Z,69.55
2023-01-20T02:06:04.693Z,69.11
2023-01-20T02:08:33.929Z,69.15
2023-01-20T02:11:05.822Z,70.06
2023-01-20T02:13:35.148Z,70.12
2023-01-20T02:16:05.483Z,71.77
2023-01-20T02:18:38.720Z,72.63
2023-01-20T02:21:16.246Z,71.18
2023-01-20T02:23:55.148Z,70.20
2023-01-20T02:26:35.542Z,68.65
2023-01-20T02:29:10.461Z,68.58
2023-01-20T02:32:03.597Z,68.06
2023-01-20T02:34:36.037Z,67.96
2023-01-20T02:37:07.987Z,67.67
2023-01-20T02:39:38.895Z,67.76
2023-01-20T02:42:10.836Z,67.38
2023-01-20T02:44:41.614Z,67.59
2023-01-20T02:47:12.133Z,67.66
2023-01-20T02:49:45.497Z,67.76
2023-01-20T02:52:15.571Z,68.00
2023-01-20T02:54:45.189Z,67.89
2023-01-20T02:57:15.185Z,67.72
2023-01-20T02:59:44.901Z,67.75
2023-01-20T03:02:16.271Z,67.81
2023-01-20T03:04:48.924Z,67.64
2023-01-20T03:07:18.330Z,67.80
2023-01-20T03:09:47.962Z,67.59
2023-01-20T03:12:22.439Z,67.54
2023-01-20T03:14:52.093Z,67.71
2023-01-20T03:17:21.371Z,67.50
2023-01-20T03:19:53.372Z,67.64
2023-01-20T03:22:22.722Z,67.09
2023-01-20T03:24:52.049Z,66.80
2023-01-20T03:27:21.388Z,66.41
2023-01-20T03:29:50.834Z,66.99
2023-01-20T03:32:22.797Z,66.55
2023-01-20T03:34:54.784Z,66.77
2023-01-20T03:37:24.118Z,67.04
2023-01-20T03:39:53.590Z,67.21
2023-01-20T03:42:24.760Z,67.44
2023-01-20T03:45:00.551Z,67.62
2023-01-20T03:47:31.887Z,67.75
2023-01-20T03:50:06.357Z,67.53
2023-01-20T03:52:47.870Z,68.02
2023-01-20T03:55:18.573Z,67.93
2023-01-20T03:57:48.599Z,67.99
2023-01-20T04:00:18.446Z,68.39
2023-01-20T04:02:47.903Z,68.37
2023-01-20T04:05:22.509Z,68.63
2023-01-20T04:07:51.834Z,67.68
2023-01-20T04:10:21.336Z,67.36
2023-01-20T04:12:50.765Z,67.50
2023-01-20T04:15:20.143Z,67.53
2023-01-20T04:17:49.495Z,67.23
2023-01-20T04:20:21.636Z,67.02
2023-01-20T04:22:51.722Z,67.18
2023-01-20T04:25:23.675Z,66.78
2023-01-20T04:27:53.118Z,67.00
2023-01-20T04:30:22.553Z,67.23
2023-01-20T04:32:51.913Z,67.29
2023-01-20T04:35:24.007Z,67.19
2023-01-20T04:37:53.342Z,66.84
2023-01-20T04:40:22.793Z,66.90
2023-01-20T04:42:52.199Z,66.89
2023-01-20T04:45:21.780Z,67.20
2023-01-20T04:47:51.201Z,67.71
2023-01-20T04:50:20.637Z,67.41
2023-01-20T04:52:52.614Z,67.83
2023-01-20T04:55:21.960Z,67.00
2023-01-20T04:57:51.405Z,67.42
2023-01-20T05:00:21.336Z,67.58
2023-01-20T05:02:50.780Z,67.79
2023-01-20T05:05:20.268Z,68.36
2023-01-20T05:07:52.337Z,68.60
2023-01-20T05:10:21.961Z,69.44
2023-01-20T05:12:51.380Z,68.77
2023-01-20T05:15:20.789Z,68.47
2023-01-20T05:17:50.113Z,68.47
2023-01-20T05:20:20.844Z,68.47
2023-01-20T05:22:52.835Z,68.96
2023-01-20T05:25:22.205Z,68.72
2023-01-20T05:27:51.512Z,68.85
2023-01-20T05:30:20.997Z,68.55
2023-01-20T05:32:52.055Z,68.36
2023-01-20T05:35:21.405Z,68.26
2023-01-20T05:37:54.888Z,68.32
2023-01-20T05:40:24.208Z,68.16
2023-01-20T05:42:53.487Z,67.82
2023-01-20T05:45:22.912Z,68.36
2023-01-20T05:47:56.890Z,67.86
2023-01-20T05:50:26.248Z,68.16
2023-01-20T05:52:58.180Z,68.47
2023-01-20T05:55:27.661Z,68.28
2023-01-20T05:57:56.986Z,67.89
2023-01-20T06:00:26.554Z,68.16
2023-01-20T06:02:55.869Z,67.96
2023-01-20T06:05:25.202Z,67.73
2023-01-20T06:07:54.542Z,67.57
2023-01-20T06:10:28.166Z,67.70
2023-01-20T06:12:57.617Z,67.77
2023-01-20T06:15:27.022Z,68.15
2023-01-20T06:17:57.691Z,68.05
2023-01-20T06:20:26.998Z,67.66
2023-01-20T06:22:57.472Z,67.82
2023-01-20T06:25:29.402Z,68.00
2023-01-20T06:27:58.656Z,68.06
2023-01-20T06:30:27.952Z,68.29
2023-01-20T06:32:58.010Z,67.82
2023-01-20T06:35:27.422Z,68.32
2023-01-20T06:37:56.797Z,68.17
2023-01-20T06:40:26.215Z,68.13
2023-01-20T06:42:58.130Z,67.42
2023-01-20T06:45:28.799Z,67.28
2023-01-20T06:47:58.139Z,67.38
2023-01-20T06:50:27.456Z,67.65
2023-01-20T06:52:56.940Z,67.58
2023-01-20T06:55:26.272Z,67.35
2023-01-20T06:57:58.262Z,68.03
2023-01-20T07:00:27.593Z,68.04
2023-01-20T07:02:56.914Z,68.32
2023-01-20T07:05:26.232Z,68.14
2023-01-20T07:07:55.546Z,68.23
2023-01-20T07:10:24.852Z,68.30
2023-01-20T07:12:54.141Z,67.60
2023-01-20T07:15:26.014Z,67.57
2023-01-20T07:17:55.315Z,67.87
2023-01-20T07:20:24.634Z,68.06
2023-01-20T07:22:53.910Z,68.23
2023-01-20T07:25:23.174Z,67.22
2023-01-20T07:27:53.235Z,67.60
2023-01-20T07:30:22.646Z,67.64
2023-01-20T07:32:54.599Z,68.09
2023-01-20T07:35:23.948Z,68.62
2023-01-20T07:37:53.413Z,68.30
2023-01-20T07:40:22.678Z,68.46
2023-01-20T07:42:52.261Z,68.71
2023-01-20T07:45:21.545Z,68.27
2023-01-20T07:47:50.904Z,68.47
2023-01-20T07:50:22.940Z,68.87
2023-01-20T07:52:52.198Z,68.80
2023-01-20T07:55:23.575Z,68.54
2023-01-20T07:57:54.318Z,68.56
2023-01-20T08:00:23.988Z,68.55
2023-01-20T08:02:53.821Z,68.23
2023-01-20T08:05:25.781Z,67.54
2023-01-20T08:07:55.157Z,66.94
2023-01-20T08:10:24.540Z,66.36
2023-01-20T08:12:53.932Z,66.17
2023-01-20T08:15:23.466Z,66.07
2023-01-20T08:17:55.867Z,65.34
2023-01-20T08:20:28.096Z,64.87
2023-01-20T08:22:57.497Z,64.55
2023-01-20T08:25:26.908Z,63.58
2023-01-20T08:27:56.250Z,63.65
2023-01-20T08:30:25.908Z,63.76
2023-01-20T08:32:55.223Z,63.35
2023-01-20T08:35:27.161Z,63.27
2023-01-20T08:37:56.514Z,63.40
2023-01-20T08:40:25.954Z,63.23
2023-01-20T08:42:55.394Z,63.41
2023-01-20T08:45:24.878Z,63.24
2023-01-20T08:47:54.440Z,63.12
2023-01-20T08:50:25.435Z,62.79
2023-01-20T08:52:57.660Z,62.40
2023-01-20T08:55:27.253Z,61.81
2023-01-20T08:57:56.783Z,61.56
2023-01-20T09:00:26.723Z,61.38
2023-01-20T09:02:56.183Z,60.97
2023-01-20T09:05:25.651Z,60.43
2023-01-20T09:07:57.950Z,59.56
2023-01-20T09:10:27.592Z,59.16
2023-01-20T09:12:57.322Z,58.21
2023-01-20T09:15:27.520Z,58.91
2023-01-20T09:17:59.119Z,59.30
2023-01-20T09:20:30.341Z,60.83
2023-01-20T09:23:03.129Z,60.74
2023-01-20T09:25:32.898Z,59.41
2023-01-20T09:28:04.987Z,59.21
2023-01-20T09:30:36.000Z,60.53
2023-01-20T09:33:06.235Z,62.42
2023-01-20T09:35:36.259Z,63.27
2023-01-20T09:38:24.736Z,62.88
2023-01-20T09:41:09.340Z,62.96
2023-01-20T09:43:53.126Z,64.18
2023-01-20T09:46:24.374Z,63.66
2023-01-20T09:49:08.107Z,66.43
2023-01-20T09:51:51.331Z,65.19
2023-01-20T09:54:25.950Z,65.06
2023-01-20T09:56:55.750Z,63.87
2023-01-20T09:59:26.254Z,61.65
2023-01-20T10:01:56.450Z,60.31
2023-01-20T10:04:30.053Z,59.82
2023-01-20T10:07:00.546Z,59.85
2023-01-20T10:09:35.141Z,59.44
2023-01-20T10:12:06.665Z,58.64
2023-01-20T10:14:37.907Z,57.81
2023-01-20T10:17:08.438Z,58.96
2023-01-20T10:19:38.685Z,60.59
2023-01-20T10:22:12.814Z,59.83
2023-01-20T10:24:47.609Z,58.27
2023-01-20T10:27:17.041Z,60.16
2023-01-20T10:29:47.091Z,61.68
2023-01-20T10:32:17.245Z,61.14
2023-01-20T10:34:47.323Z,59.90
2023-01-20T10:37:17.658Z,60.54
2023-01-20T10:39:51.235Z,60.46
2023-01-20T10:42:20.810Z,60.80
2023-01-20T10:44:51.463Z,58.67
2023-01-20T10:47:23.798Z,57.97
2023-01-20T10:50:00.300Z,57.57
2023-01-20T10:52:36.318Z,55.44
2023-01-20T10:55:12.839Z,54.75
2023-01-20T10:57:43.057Z,54.16
2023-01-20T11:00:19.602Z,52.65
2023-01-20T11:02:50.488Z,51.15
2023-01-20T11:05:32.829Z,52.39
2023-01-20T11:08:02.721Z,54.83
2023-01-20T11:10:37.529Z,53.59
2023-01-20T11:13:07.633Z,54.75
2023-01-20T11:15:38.969Z,54.99
2023-01-20T11:18:23.989Z,53.80
2023-01-20T11:20:55.070Z,52.42
2023-01-20T11:23:26.909Z,55.92
2023-01-20T11:25:59.441Z,56.46
2023-01-20T11:28:29.397Z,54.29
2023-01-20T11:30:59.345Z,52.83
2023-01-20T11:33:29.950Z,51.08
2023-01-20T11:36:00.485Z,50.17
2023-01-20T11:38:31.819Z,50.60
2023-01-20T11:41:04.613Z,52.02
2023-01-20T11:43:34.780Z,52.30
2023-01-20T11:46:16.567Z,52.23
2023-01-20T11:48:46.159Z,52.02
2023-01-20T11:51:22.217Z,52.87
2023-01-20T11:53:52.059Z,51.42
2023-01-20T11:56:27.492Z,50.55
2023-01-20T11:58:59.345Z,50.38
2023-01-20T12:01:29.919Z,52.29
2023-01-20T12:04:19.833Z,54.20
2023-01-20T12:06:56.942Z,53.74
2023-01-20T12:09:34.927Z,53.27
2023-01-20T12:12:13.363Z,54.54
2023-01-20T12:14:43.513Z,54.34
2023-01-20T12:17:17.351Z,54.34
2023-01-20T12:19:51.066Z,53.57
2023-01-20T12:22:21.219Z,52.78
2023-01-20T12:25:07.773Z,53.52
2023-01-20T12:27:39.977Z,54.38
2023-01-20T12:30:10.538Z,54.88
2023-01-20T12:32:40.405Z,54.50
2023-01-20T12:35:13.791Z,55.46
2023-01-20T12:37:45.186Z,56.93
2023-01-20T12:40:18.193Z,57.62
2023-01-20T12:43:04.568Z,58.69
2023-01-20T12:45:48.228Z,58.84
2023-01-20T12:48:21.983Z,59.14
2023-01-20T12:50:55.083Z,57.23
2023-01-20T12:53:28.471Z,56.69
2023-01-20T12:56:00.351Z,55.55
2023-01-20T12:58:34.075Z,54.33
2023-01-20T13:01:16.138Z,54.32
2023-01-20T13:04:12.901Z,54.91
2023-01-20T13:06:48.756Z,57.22
2023-01-20T13:09:36.240Z,58.25
2023-01-20T13:12:08.184Z,58.16
2023-01-20T13:14:40.805Z,56.49
2023-01-20T13:17:15.257Z,55.43
2023-01-20T13:19:45.824Z,55.21
2023-01-20T13:22:15.807Z,53.96
2023-01-20T13:24:46.652Z,53.09
2023-01-20T13:27:27.379Z,53.56
2023-01-20T13:29:57.848Z,52.98
2023-01-20T13:32:37.370Z,53.57
2023-01-20T13:35:29.993Z,53.14
2023-01-20T13:37:59.887Z,53.63
2023-01-20T13:40:45.943Z,55.58
2023-01-20T13:43:30.279Z,55.84
2023-01-20T13:46:15.374Z,55.05
2023-01-20T13:49:09.190Z,54.62
2023-01-20T13:51:48.355Z,55.74
2023-01-20T13:54:34.363Z,56.36
2023-01-20T13:57:20.303Z,56.17
2023-01-20T13:59:49.798Z,56.56
2023-01-20T14:02:20.123Z,56.02
2023-01-20T14:04:52.711Z,56.49
2023-01-20T14:07:25.411Z,56.60
2023-01-20T14:09:55.003Z,56.84
2023-01-20T14:12:24.640Z,58.47
2023-01-20T14:14:54.109Z,58.96
2023-01-20T14:17:24.687Z,58.17
2023-01-20T14:19:57.424Z,58.45
2023-01-20T14:22:27.537Z,57.68
2023-01-20T14:24:57.536Z,56.62
2023-01-20T14:27:28.316Z,56.79
2023-01-20T14:29:59.832Z,57.43
2023-01-20T14:32:30.089Z,58.31
2023-01-20T14:35:02.116Z,58.19
2023-01-20T14:37:31.903Z,58.43
2023-01-20T14:40:02.501Z,59.16
2023-01-20T14:42:31.953Z,59.82
2023-01-20T14:45:01.245Z,59.82
2023-01-20T14:47:31.084Z,59.89
2023-01-20T14:50:03.235Z,60.17
2023-01-20T14:52:32.983Z,60.43
2023-01-20T14:55:02.709Z,59.67
2023-01-20T14:57:32.116Z,60.23
2023-01-20T15:00:14.363Z,60.19
2023-01-20T15:02:44.621Z,60.86
2023-01-20T15:05:28.093Z,61.08
2023-01-20T15:08:18.705Z,60.78
2023-01-20T15:10:48.111Z,60.56
2023-01-20T15:13:24.474Z,59.65
2023-01-20T15:15:53.885Z,59.06
2023-01-20T15:18:23.875Z,59.36
2023-01-20T15:21:15.597Z,60.57
2023-01-20T15:23:51.364Z,60.80
2023-01-20T15:26:24.505Z,62.60
2023-01-20T15:28:53.831Z,65.00
2023-01-20T15:31:23.236Z,68.25
2023-01-20T15:33:52.788Z,70.55
2023-01-20T15:36:26.242Z,71.61
2023-01-20T15:38:55.607Z,72.67
2023-01-20T15:41:25.010Z,72.62
2023-01-20T15:43:54.354Z,73.84
2023-01-20T15:46:23.711Z,73.75
2023-01-20T15:48:52.992Z,72.81
2023-01-20T15:51:22.486Z,72.20
2023-01-20T15:53:54.469Z,71.13
2023-01-20T15:56:24.313Z,71.26
2023-01-20T15:58:53.832Z,71.60
2023-01-20T16:01:24.172Z,73.16
2023-01-20T16:03:55.041Z,74.01
2023-01-20T16:06:25.187Z,75.06
2023-01-20T16:08:57.163Z,76.36
2023-01-20T16:11:26.611Z,77.43
2023-01-20T16:13:56.103Z,77.51
2023-01-20T16:16:29.628Z,77.88
2023-01-20T16:18:59.422Z,78.87
2023-01-20T16:21:28.990Z,79.17
2023-01-20T16:24:00.908Z,78.62
2023-01-20T16:26:30.597Z,79.33
2023-01-20T16:29:00.074Z,82.03
2023-01-20T16:31:29.687Z,84.73
2023-01-20T16:33:58.980Z,85.98
2023-01-20T16:36:28.668Z,86.95
2023-01-20T16:38:57.942Z,87.57
2023-01-20T16:41:30.844Z,88.08
2023-01-20T16:44:00.656Z,87.33
2023-01-20T16:46:31.596Z,87.92
2023-01-20T16:49:02.161Z,89.08
2023-01-20T16:51:31.658Z,87.78
2023-01-20T16:54:01.047Z,85.69
2023-01-20T16:56:33.176Z,84.20
2023-01-20T16:59:03.033Z,83.65
2023-01-20T17:01:33.234Z,83.44
2023-01-20T17:04:02.815Z,82.86
2023-01-20T17:06:33.372Z,82.64
2023-01-20T17:09:02.981Z,82.19
2023-01-20T17:11:35.277Z,82.67
2023-01-20T17:14:04.960Z,83.19
2023-01-20T17:16:34.370Z,83.05
2023-01-20T17:19:03.762Z,82.80
2023-01-20T17:21:33.610Z,82.82
2023-01-20T17:24:03.291Z,83.48
2023-01-20T17:26:37.108Z,83.63
2023-01-20T17:29:07.137Z,83.86
2023-01-20T17:31:37.123Z,83.62
2023-01-20T17:34:06.621Z,83.52
2023-01-20T17:36:36.273Z,84.19
2023-01-20T17:39:05.609Z,84.51
2023-01-20T17:41:37.467Z,84.42
2023-01-20T17:44:08.073Z,84.94
2023-01-20T17:46:37.520Z,85.27
2023-01-20T17:49:08.162Z,85.52
2023-01-20T17:51:37.413Z,85.60
2023-01-20T17:54:06.675Z,85.57
2023-01-20T17:56:38.575Z,86.43
2023-01-20T17:59:07.979Z,87.69
2023-01-20T18:01:37.313Z,87.55
2023-01-20T18:04:10.367Z,87.08
2023-01-20T18:06:40.004Z,86.86
2023-01-20T18:09:09.693Z,88.16
2023-01-20T18:11:43.645Z,88.73
2023-01-20T18:14:13.181Z,88.47
2023-01-20T18:16:43.156Z,88.04
2023-01-20T18:19:12.517Z,88.08
2023-01-20T18:21:41.888Z,87.49
2023-01-20T18:24:12.704Z,87.93
2023-01-20T18:26:45.319Z,87.70
2023-01-20T18:29:15.717Z,88.34
2023-01-20T18:31:46.690Z,88.46
2023-01-20T18:34:16.526Z,89.26
2023-01-20T18:36:47.676Z,88.54
2023-01-20T18:39:17.797Z,87.79
2023-01-20T18:41:50.055Z,88.41
2023-01-20T18:44:19.785Z,87.81
2023-01-20T18:46:49.145Z,87.87
2023-01-20T18:49:18.961Z,88.17
2023-01-20T18:51:48.523Z,89.11
2023-01-20T18:54:21.019Z,88.70
2023-01-20T18:56:53.194Z,89.11
2023-01-20T18:59:22.693Z,88.20
2023-01-20T19:01:52.442Z,87.60
2023-01-20T19:04:22.052Z,88.78
2023-01-20T19:06:51.752Z,90.29
2023-01-20T19:09:21.316Z,90.43
2023-01-20T19:11:53.467Z,90.34
2023-01-20T19:14:22.982Z,89.81
2023-01-20T19:16:52.316Z,88.87
2023-01-20T19:19:21.942Z,88.71
2023-01-20T19:21:52.676Z,88.48
2023-01-20T19:24:22.489Z,89.46
2023-01-20T19:26:54.434Z,89.07
2023-01-20T19:29:23.672Z,88.64
2023-01-20T19:31:52.966Z,87.91
2023-01-20T19:34:22.509Z,88.29
2023-01-20T19:36:51.985Z,88.04
2023-01-20T19:39:21.622Z,89.09
2023-01-20T19:41:51.308Z,90.17
2023-01-20T19:44:23.318Z,91.39
2023-01-20T19:46:52.726Z,91.69
2023-01-20T19:49:22.267Z,91.59
2023-01-20T19:51:51.668Z,92.48
2023-01-20T19:54:21.521Z,94.17
2023-01-20T19:56:51.083Z,94.28
2023-01-20T19:59:23.151Z,93.49
2023-01-20T20:01:52.747Z,92.84
2023-01-20T20:04:24.156Z,91.77
2023-01-20T20:06:53.797Z,91.59
2023-01-20T20:09:26.130Z,93.02
2023-01-20T20:11:56.130Z,92.78
2023-01-20T20:14:29.683Z,92.17
2023-01-20T20:16:59.041Z,92.53
2023-01-20T20:19:28.875Z,91.89
2023-01-20T20:21:58.878Z,93.19
2023-01-20T20:24:30.657Z,93.17
2023-01-20T20:27:03.307Z,93.69
2023-01-20T20:29:36.261Z,94.10
2023-01-20T20:32:05.565Z,94.07
2023-01-20T20:34:35.193Z,93.84
2023-01-20T20:37:04.669Z,93.31
2023-01-20T20:39:35.044Z,93.12
2023-01-20T20:42:05.178Z,92.93
2023-01-20T20:44:37.349Z,93.41
2023-01-20T20:47:07.140Z,93.66
2023-01-20T20:49:36.667Z,93.86
2023-01-20T20:52:09.107Z,93.83
2023-01-20T20:54:39.412Z,93.21
2023-01-20T20:57:11.899Z,93.58
2023-01-20T21:10:21.746Z,93.74
2023-01-20T21:37:38.474Z,96.06
2023-01-20T21:40:09.039Z,95.91
2023-01-20T21:42:38.690Z,95.84
2023-01-20T21:45:06.019Z,95.83
2023-01-20T21:47:35.546Z,95.47
2023-01-20T21:50:17.637Z,95.29
2023-01-20T21:52:49.949Z,95.67
2023-01-20T21:55:19.747Z,95.61
2023-01-20T21:57:51.205Z,95.57
2023-01-20T22:00:21.557Z,94.81
2023-01-20T22:02:51.153Z,93.49
2023-01-20T22:05:20.897Z,93.94
2023-01-20T22:08:02.615Z,94.63
2023-01-20T22:10:32.699Z,94.29
2023-01-20T22:13:02.057Z,94.95
2023-01-20T22:15:31.644Z,94.81
2023-01-20T22:18:01.068Z,95.93
2023-01-20T22:20:31.059Z,96.18
2023-01-20T22:23:03.155Z,96.81
2023-01-20T22:25:32.703Z,96.95
2023-01-20T22:28:02.121Z,97.64
2023-01-20T22:30:31.732Z,98.31
2023-01-20T22:33:01.428Z,98.22
2023-01-20T22:35:31.151Z,97.58
2023-01-20T22:38:04.260Z,97.56
2023-01-20T22:40:34.378Z,98.06
2023-01-20T22:43:03.843Z,98.36
2023-01-20T22:45:33.337Z,98.49
2023-01-20T22:48:02.855Z,98.74
2023-01-20T22:50:32.266Z,98.71
2023-01-20T22:53:04.417Z,98.14
2023-01-20T22:55:33.954Z,98.73
2023-01-20T22:58:03.411Z,98.99
2023-01-20T23:00:32.795Z,99.50
2023-01-20T23:03:02.499Z,100.00
2023-01-20T23:05:32.561Z,100.00
2023-01-20T23:08:04.685Z,99.71
2023-01-20T23:10:49.143Z,99.32
2023-01-20T23:13:18.798Z,98.67
2023-01-20T23:15:48.437Z,98.55
2023-01-20T23:18:18.179Z,98.20
2023-01-20T23:20:52.654Z,99.00
2023-01-20T23:23:25.278Z,99.20
2023-01-20T23:26:03.861Z,98.46
2023-01-20T23:28:33.785Z,98.78
2023-01-20T23:31:08.176Z,98.88
2023-01-20T23:33:41.882Z,98.98
2023-01-20T23:36:14.140Z,99.60
2023-01-20T23:38:49.077Z,100.00
2023-01-20T23:41:21.305Z,99.52
2023-01-20T23:43:56.923Z,99.76
2023-01-20T23:46:29.449Z,100.00
2023-01-20T23:49:03.596Z,100.00
2023-01-20T23:51:36.028Z,100.00
2023-01-20T23:54:34.688Z,100.00
2023-01-20T23:57:23.273Z,100.00
